Terminal Aerodrome Forecast
Issued by NWS

Home | Current Version | Previous Version | Text Only | Print | Product List | Glossary On
Versions: 1 2 3 4 5 6 7 8 9 10 11 12 13 14 15 16 17 18 19 20 21 22 23 24 25 26 27 28 29 30 31 32 33 34
000
FTUS43 KGRR 140540
TAFMKG
TAF
KMKG 140540Z 1406/1506 01008KT P6SM BKN040
     FM141400 33004KT 4SM -SHSN OVC025
     FM142000 26006KT P6SM BKN040
     FM150200 24006KT 2SM -SHSN OVC035
     FM150500 24007KT 3/4SM -SN OVC025=

USA.gov is the U.S. government's official web portal to all federal, state and local government web resources and services.